Terminal Aerodrome Forecast
Issued by NWS Brownsville, TX

Home | Current Version | Previous Version | Text Only | Print | Product List | Glossary On
Versions: 1 2 3 4 5 6 7 8 9 10 11 12 13 14
246
FTUS44 KBRO 141129
TAFBRO
TAF
KBRO 141129Z 1412/1512 VRB03KT P6SM BKN150
     FM141600 17010KT P6SM SCT050 OVC100
     FM150000 11006KT P6SM OVC050
     FM150500 02006KT P6SM VCSH OVC035
     FM151000 35012G18KT 5SM -RA BR OVC025=

USA.gov is the U.S. government's official web portal to all federal, state and local government web resources and services.